Terminal Aerodrome Forecast
Issued by NWS

Home | Current Version | Previous Version | Text Only | Print | Product List | Glossary On
Versions: 1 2 3 4 5 6 7 8 9 10 11 12 13 14
000
FTUS43 KICT 180700 AAC
TAFHUT
TAF AMD
KHUT 180726Z 1807/1906 10010KT P6SM BKN120
     FM181200 18009KT P6SM SCT250
     FM181900 22013KT P6SM SCT250=

USA.gov is the U.S. government's official web portal to all federal, state and local government web resources and services.